Time;durP1;ratioP1;P1;durP2;ratioP2;P2;SDS_P1;SDS_P2;PMS_P1;PMS_P2;Temp;Humidity;BMP_temperature;BMP_pressure;BME280_temperature;BME280_humidity;BME280_pressure;Samples;Min_cycle;Max_cycle;Signal;HPM_P1;HPM_P2
2022/01/18 00:00:29;;;;;;;22.93;6.55;;;;;;;-0.79;77.77;102033.28;1606334;87;21112;-73
2022/01/18 00:02:58;;;;;;;21.25;5.22;;;;;;;-0.79;77.78;102037.09;1612150;87;21081;-73
2022/01/18 00:05:26;;;;;;;26.35;6.83;;;;;;;-0.80;77.73;102040.81;1604696;87;21622;-73
2022/01/18 00:07:53;;;;;;;32.78;7.70;;;;;;;-0.80;77.84;102041.69;1608121;87;21576;-73
2022/01/18 00:10:21;;;;;;;24.25;6.37;;;;;;;-0.80;77.82;102045.89;1610756;87;21132;-73
2022/01/18 00:23:27;;;;;;;20.12;4.90;;;;;;;-0.81;77.92;102058.98;1600431;87;21128;-73
2022/01/18 00:25:56;;;;;;;24.18;6.15;;;;;;;-0.80;77.84;102061.13;1609274;87;21512;-73
2022/01/18 00:28:26;;;;;;;21.05;6.10;;;;;;;-0.81;77.87;102058.11;1638417;85;21498;-73
2022/01/18 00:36:10;;;;;;;15.68;5.17;;;;;;;-0.80;78.05;102058.19;1617740;87;21072;-73
2022/01/18 00:38:47;;;;;;;16.37;5.53;;;;;;;-0.81;78.04;102058.98;1640698;85;21128;-73
2022/01/18 00:41:15;;;;;;;17.70;5.25;;;;;;;-0.82;78.04;102062.31;1644325;85;22093;-73
2022/01/18 00:43:42;;;;;;;13.40;5.42;;;;;;;-0.80;78.03;102059.86;1645921;85;21413;-73
2022/01/18 00:46:11;;;;;;;22.02;4.90;;;;;;;-0.82;78.04;102063.59;1634860;86;20902;-73
2022/01/18 00:48:39;;;;;;;20.70;4.28;;;;;;;-0.81;78.07;102067.00;1640369;85;21386;-73
2022/01/18 00:51:11;;;;;;;18.23;4.78;;;;;;;-0.81;78.04;102080.97;1637151;85;20930;-73
2022/01/18 00:53:38;;;;;;;55.78;49.90;;;;;;;-0.80;78.15;102094.14;1645909;85;21844;-73
2022/01/18 00:58:40;;;;;;;19.95;5.03;;;;;;;-0.80;78.07;102099.22;1640694;86;21528;-73
2022/01/18 01:01:07;;;;;;;18.15;5.35;;;;;;;-0.82;78.15;102101.67;1645890;85;20898;-73
2022/01/18 01:03:33;;;;;;;13.48;4.62;;;;;;;-0.81;78.14;102097.47;1630194;85;21434;-73
2022/01/18 01:06:01;;;;;;;15.00;3.72;;;;;;;-0.83;78.10;102100.33;1645931;85;20956;-73
2022/01/18 01:08:27;;;;;;;16.30;4.47;;;;;;;-0.86;78.12;102102.30;1645848;85;21449;-73
2022/01/18 01:10:54;;;;;;;12.88;4.37;;;;;;;-0.85;78.22;102102.78;1639887;86;21532;-73
2022/01/18 01:13:21;;;;;;;;;;;;;;;-0.85;78.17;102106.59;1643978;86;20921;-73
2022/01/18 01:44:52;;;;;;;10.78;2.72;;;;;;;-0.95;78.35;102122.51;1544675;91;21128;-73
2022/01/18 01:47:21;;;;;;;13.83;2.98;;;;;;;-0.96;78.36;102124.56;1541342;91;21143;-73
2022/01/18 01:49:50;;;;;;;14.85;3.15;;;;;;;-0.97;78.28;102136.78;1565903;89;21568;-73
2022/01/18 01:52:20;;;;;;;9.65;2.95;;;;;;;-1.02;78.29;102147.56;1534907;92;22135;-73
2022/01/18 01:54:46;;;;;;;8.43;3.17;;;;;;;-1.04;78.35;102156.75;1559622;90;20969;-73
2022/01/18 01:57:12;;;;;;;10.95;3.52;;;;;;;-1.04;78.37;102162.25;1530497;93;21517;-73
2022/01/18 01:59:40;;;;;;;12.05;3.17;;;;;;;-1.04;78.38;102150.84;1549843;91;21111;-73
2022/01/18 02:02:07;;;;;;;13.70;3.75;;;;;;;-1.05;78.42;102141.47;1521616;93;21145;-73
2022/01/18 02:04:32;;;;;;;;;;;;;;;-1.06;78.42;102139.72;1559857;91;21643;-73
2022/01/18 02:06:58;;;;;;;10.28;2.95;;;;;;;-1.07;78.59;102140.52;1598080;87;20206;-73
2022/01/18 02:09:24;;;;;;;16.77;3.62;;;;;;;-1.08;78.45;102129.48;1584432;88;20953;-73
2022/01/18 02:11:51;;;;;;;8.80;2.62;;;;;;;-1.10;78.48;102139.95;1637903;86;21139;-73
2022/01/18 02:14:21;;;;;;;10.63;2.95;;;;;;;-1.12;78.46;102146.99;1639739;86;21523;-73
2022/01/18 02:22:16;;;;;;;10.35;3.08;;;;;;;-1.16;78.54;102147.61;1619271;87;21501;-73
2022/01/18 02:24:42;;;;;;;11.35;3.95;;;;;;;-1.15;78.58;102150.62;1614539;88;21345;-73
2022/01/18 02:27:09;;;;;;;8.95;3.22;;;;;;;-1.15;78.58;102154.44;1614171;87;21659;-73
2022/01/18 02:29:34;;;;;;;12.90;3.22;;;;;;;-1.17;78.57;102158.16;1604658;87;20982;-73
2022/01/18 02:32:01;;;;;;;9.25;2.83;;;;;;;-1.18;78.60;102158.07;1602984;87;20930;-73
2022/01/18 02:34:27;;;;;;;9.63;3.00;;;;;;;-1.17;78.66;102151.81;1606864;87;21234;-73
2022/01/18 02:36:54;;;;;;;12.43;3.90;;;;;;;-1.19;78.60;102149.58;1605018;87;20993;-73
2022/01/18 02:39:27;;;;;;;13.40;4.12;;;;;;;-1.20;78.62;102150.38;1613572;87;20945;-73
2022/01/18 02:41:57;;;;;;;9.65;3.50;;;;;;;-1.20;78.65;102144.02;1612172;87;21107;-73
2022/01/18 02:44:25;;;;;;;11.83;3.22;;;;;;;-1.20;78.72;102138.95;1613512;87;20970;-73
2022/01/18 02:46:51;;;;;;;15.63;3.35;;;;;;;-1.20;78.70;102140.22;1613250;87;21585;-73
2022/01/18 02:49:18;;;;;;;12.80;2.05;;;;;;;-1.19;78.74;102136.89;1607369;87;20953;-73
2022/01/18 02:51:45;;;;;;;13.58;2.70;;;;;;;-1.17;78.62;102151.81;1607823;87;21766;-73
2022/01/18 02:54:15;;;;;;;12.55;2.98;;;;;;;-1.17;78.62;102151.81;1613969;87;21390;-73
2022/01/18 02:56:48;;;;;;;8.63;2.50;;;;;;;-1.15;78.74;102146.83;1612500;87;20934;-73
2022/01/18 02:59:31;;;;;;;11.60;4.05;;;;;;;-1.13;78.76;102135.97;1592389;87;20974;-73
2022/01/18 03:04:39;;;;;;;8.15;2.58;;;;;;;-1.09;78.79;102122.66;1610217;87;21461;-73
2022/01/18 03:07:06;;;;;;;12.33;2.58;;;;;;;-1.06;78.74;102132.11;1611970;87;20933;-73
2022/01/18 03:09:32;;;;;;;;;;;;;;;-1.04;78.86;102134.33;1610163;87;20982;-73
2022/01/18 03:11:59;;;;;;;10.48;1.90;;;;;;;-1.01;79.01;102130.66;1613728;87;20117;-73
2022/01/18 03:14:25;;;;;;;9.08;2.27;;;;;;;-0.98;78.75;102134.64;1611630;87;21515;-73
2022/01/18 03:16:50;;;;;;;16.87;3.47;;;;;;;-0.96;78.91;102144.48;1614079;87;21662;-73
2022/01/18 03:19:17;;;;;;;9.23;2.50;;;;;;;-0.94;78.84;102136.55;1596279;87;21378;-73
2022/01/18 03:21:43;;;;;;;13.95;3.00;;;;;;;-0.93;78.86;102142.11;1595808;87;23617;-73
2022/01/18 03:24:30;;;;;;;12.82;2.47;;;;;;;-0.92;78.84;102150.21;1596979;87;21057;-73
2022/01/18 03:29:07;;;;;;;9.18;3.15;;;;;;;-0.87;78.94;102166.57;1575974;87;20986;-73
2022/01/18 03:31:33;;;;;;;13.13;2.85;;;;;;;-0.86;78.95;102161.09;1590718;87;21667;-73
2022/01/18 03:33:59;;;;;;;10.80;2.80;;;;;;;-0.86;78.99;102161.09;1601225;87;21817;-73
2022/01/18 03:36:25;;;;;;;13.98;2.87;;;;;;;-0.85;78.99;102164.99;1602392;87;20925;-73
2022/01/18 03:38:51;;;;;;;13.60;2.62;;;;;;;-0.86;78.90;102168.32;1611844;87;21600;-73
2022/01/18 03:41:18;;;;;;;7.60;2.35;;;;;;;-0.86;79.02;102170.86;1604333;87;21733;-73
2022/01/18 03:43:45;;;;;;;12.33;2.62;;;;;;;-0.84;79.01;102186.18;1596027;87;21245;-73
2022/01/18 03:46:11;;;;;;;15.60;3.35;;;;;;;-0.84;79.08;102195.94;1606228;87;21583;-73
2022/01/18 03:48:38;;;;;;;10.72;2.58;;;;;;;-0.82;79.12;102208.72;1608276;87;21084;-73
2022/01/18 03:51:08;;;;;;;9.63;2.85;;;;;;;-0.82;79.03;102207.45;1609727;87;22358;-73
2022/01/18 03:53:34;;;;;;;13.00;3.20;;;;;;;-0.83;79.05;102205.31;1608147;87;21544;-72
2022/01/18 03:56:01;;;;;;;17.23;2.85;;;;;;;-0.84;79.07;102206.49;1605151;87;21111;-73
2022/01/18 03:58:26;;;;;;;;;;;;;;;-0.84;79.07;102209.91;1616034;87;21467;-73
2022/01/18 04:00:53;;;;;;;15.30;3.45;;;;;;;-0.86;79.19;102207.68;1612436;87;20930;-73
2022/01/18 04:03:19;;;;;;;13.15;3.65;;;;;;;-0.85;79.05;102216.17;1613913;87;21057;-73
2022/01/18 04:05:46;;;;;;;14.93;2.83;;;;;;;-0.85;79.17;102225.94;1606779;87;21450;-73
2022/01/18 04:08:12;;;;;;;12.53;2.27;;;;;;;-0.83;79.21;102224.75;1614005;87;21326;-73
2022/01/18 04:10:39;;;;;;;6.33;2.12;;;;;;;-0.84;79.18;102216.26;1613534;87;24477;-73
2022/01/18 04:13:05;;;;;;;8.38;2.70;;;;;;;-0.84;79.18;102213.72;1613836;87;20950;-73
2022/01/18 04:15:32;;;;;;;11.05;3.05;;;;;;;-0.83;79.12;102214.59;1609187;87;20898;-73
2022/01/18 04:26:00;;;;;;;8.55;3.08;;;;;;;-0.82;79.29;102223.56;1608588;87;20997;-73
2022/01/18 04:30:50;;;;;;;12.68;2.95;;;;;;;-0.82;79.23;102227.38;1585115;87;21133;-73
2022/01/18 04:33:16;;;;;;;12.82;2.55;;;;;;;-0.83;79.33;102231.97;1599029;87;21076;-72
2022/01/18 04:35:42;;;;;;;;;;;;;;;-0.81;79.36;102235.87;1613678;87;21461;-72
2022/01/18 04:38:08;;;;;;;11.33;2.92;;;;;;;-0.82;79.41;102234.99;1613170;87;20204;-73
2022/01/18 04:40:36;;;;;;;13.80;2.42;;;;;;;-0.82;79.41;102243.88;1613611;87;21126;-73
2022/01/18 04:43:13;;;;;;;9.68;2.70;;;;;;;-0.81;79.37;102249.44;1613779;87;21114;-73
2022/01/18 04:48:29;;;;;;;14.40;4.17;;;;;;;-0.81;79.45;102257.45;1615711;86;21453;-73
2022/01/18 04:51:02;;;;;;;19.27;3.62;;;;;;;-0.81;79.44;102264.68;1611800;87;21382;-72
2022/01/18 04:53:31;;;;;;;15.03;3.00;;;;;;;-0.79;79.47;102263.09;1613895;87;21413;-72
2022/01/18 04:56:04;;;;;;;11.78;3.00;;;;;;;-0.77;79.44;102261.92;1613070;87;21402;-72
2022/01/18 04:58:28;;;;;;;12.90;3.27;;;;;;;-0.73;79.61;102271.46;1600353;87;21846;-73
2022/01/18 05:00:59;;;;;;;12.05;2.83;;;;;;;-0.69;79.65;102271.72;1614005;87;20989;-73
2022/01/18 05:03:27;;;;;;;51.13;46.60;;;;;;;-0.64;79.67;102270.70;1598727;87;21406;-73
2022/01/18 05:05:56;;;;;;;15.13;3.47;;;;;;;-0.60;79.63;102266.28;1605210;87;20898;-73
2022/01/18 05:08:23;;;;;;;18.80;3.62;;;;;;;-0.57;79.62;102271.53;1624476;87;21635;-73
2022/01/18 05:10:57;;;;;;;10.98;2.58;;;;;;;-0.54;79.59;102270.83;1592763;87;21164;-73
2022/01/18 05:21:28;;;;;;;18.52;3.58;;;;;;;-0.40;79.64;102291.48;1613858;87;20993;-73
2022/01/18 05:23:52;;;;;;;9.75;2.65;;;;;;;-0.38;79.67;102304.76;1614091;87;21540;-73
2022/01/18 05:26:19;;;;;;;13.60;3.55;;;;;;;-0.35;79.70;102310.41;1595830;87;21100;-73
2022/01/18 05:28:45;;;;;;;;;;;;;;;-0.32;79.62;102322.02;1595868;88;21609;-73
2022/01/18 05:31:11;;;;;;;12.55;2.98;;;;;;;-0.31;79.75;102322.50;1600744;88;20184;-73
2022/01/18 05:33:40;;;;;;;12.65;3.20;;;;;;;-0.29;79.73;102317.50;1599284;88;21560;-72
2022/01/18 05:36:06;;;;;;;10.58;2.98;;;;;;;-0.27;79.67;102321.87;1592902;87;21532;-73
2022/01/18 05:38:35;;;;;;;13.55;3.83;;;;;;;-0.25;79.74;102327.92;1598609;88;21504;-73
2022/01/18 05:41:07;;;;;;;12.93;3.65;;;;;;;-0.22;79.77;102319.19;1594674;88;21545;-73
2022/01/18 05:43:34;;;;;;;13.22;3.55;;;;;;;-0.20;79.87;102315.06;1597657;88;21644;-73
2022/01/18 05:46:00;;;;;;;;;;;;;;;-0.18;79.77;102317.69;1583170;88;21556;-73
2022/01/18 05:48:26;;;;;;;13.38;4.05;;;;;;;-0.17;79.92;102322.86;1600794;88;20783;-72
2022/01/18 05:50:59;;;;;;;12.50;3.67;;;;;;;-0.14;79.83;102319.61;1584805;88;21089;-73
2022/01/18 05:53:21;;;;;;;11.75;4.12;;;;;;;-0.14;79.80;102322.16;1594173;88;20990;-73
2022/01/18 05:55:47;;;;;;;16.32;4.87;;;;;;;-0.15;79.82;102323.82;1602507;88;20942;-73
2022/01/18 05:58:13;;;;;;;23.77;5.00;;;;;;;-0.14;79.87;102331.92;1608852;88;21505;-72
2022/01/18 06:00:41;;;;;;;21.73;4.37;;;;;;;-0.12;79.84;102331.61;1589704;88;20998;-73
2022/01/18 06:03:15;;;;;;;16.17;4.22;;;;;;;-0.13;79.82;102338.77;1601061;88;21835;-73
2022/01/18 06:08:26;;;;;;;14.37;4.37;;;;;;;-0.13;79.88;102352.74;1595866;89;20978;-73
2022/01/18 06:10:52;;;;;;;14.70;4.20;;;;;;;-0.14;79.97;102345.91;1586550;89;20986;-73
2022/01/18 06:13:18;;;;;;;13.30;4.33;;;;;;;-0.14;79.93;102352.27;1584246;89;20933;-73
2022/01/18 06:15:44;;;;;;;12.78;4.92;;;;;;;-0.13;80.10;102349.33;1553690;90;20970;-73
2022/01/18 06:18:10;;;;;;;10.88;4.87;;;;;;;-0.12;80.10;102355.77;1588963;88;21443;-73
2022/01/18 06:20:36;;;;;;;18.87;4.47;;;;;;;-0.10;80.10;102358.00;1599163;88;21439;-73
2022/01/18 06:23:02;;;;;;;19.37;5.20;;;;;;;-0.11;80.17;102346.08;1597656;88;21435;-73
2022/01/18 06:25:29;;;;;;;13.35;4.78;;;;;;;-0.10;80.14;102352.91;1601266;88;20910;-73
2022/01/18 06:27:55;;;;;;;16.97;5.47;;;;;;;-0.10;80.05;102351.64;1594332;88;20958;-73
2022/01/18 06:30:21;;;;;;;19.65;5.12;;;;;;;-0.11;80.08;102361.33;1609185;88;21659;-73
2022/01/18 06:32:47;;;;;;;23.47;6.45;;;;;;;-0.11;80.16;102357.91;1643327;86;28462;-73
2022/01/18 06:35:16;;;;;;;16.10;5.15;;;;;;;-0.09;80.17;102362.69;1643975;86;21430;-73
2022/01/18 06:37:42;;;;;;;17.30;5.10;;;;;;;-0.07;80.26;102379.78;1627607;86;20905;-73
2022/01/18 06:40:10;;;;;;;16.95;5.12;;;;;;;-0.06;80.23;102373.03;1643762;86;20914;-73
2022/01/18 06:42:37;;;;;;;18.57;5.67;;;;;;;-0.07;80.19;102373.42;1629227;86;21346;-73
2022/01/18 06:45:05;;;;;;;17.52;5.42;;;;;;;-0.08;80.22;102376.76;1644003;86;21541;-73
2022/01/18 06:47:31;;;;;;;15.72;5.67;;;;;;;-0.08;80.29;102379.30;1635841;86;21395;-73
2022/01/18 06:49:57;;;;;;;21.52;5.50;;;;;;;-0.05;80.32;102392.58;1640658;86;21192;-72
2022/01/18 06:52:23;;;;;;;14.80;5.05;;;;;;;-0.03;80.37;102403.71;1642648;86;21670;-73
2022/01/18 06:54:49;;;;;;;15.75;4.83;;;;;;;-0.04;80.23;102406.65;1640009;86;26387;-73
2022/01/18 06:57:15;;;;;;;9.73;5.00;;;;;;;-0.04;80.26;102405.77;1643325;86;20949;-73
2022/01/18 06:59:41;;;;;;;15.53;5.50;;;;;;;-0.05;80.30;102403.63;1644089;86;21674;-73
2022/01/18 07:02:07;;;;;;;16.77;6.35;;;;;;;-0.02;80.40;102406.34;1639946;86;21454;-73
2022/01/18 07:04:34;;;;;;;10.40;5.53;;;;;;;-0.01;80.33;102409.76;1642876;86;21418;-73
2022/01/18 07:07:00;;;;;;;14.58;6.08;;;;;;;-0.01;80.35;102397.92;1640520;85;20942;-73
2022/01/18 07:09:27;;;;;;;18.50;5.30;;;;;;;-0.01;80.35;102405.55;1642684;85;21453;-73
2022/01/18 07:11:56;;;;;;;12.35;4.97;;;;;;;0.00;80.41;102414.05;1636877;86;21544;-73
2022/01/18 07:14:22;;;;;;;13.58;5.30;;;;;;;0.02;80.51;102422.61;1645075;84;393011;-73
2022/01/18 07:16:48;;;;;;;15.75;4.45;;;;;;;0.06;80.54;102432.56;1627556;85;21395;-73
2022/01/18 07:19:15;;;;;;;14.05;5.03;;;;;;;0.08;80.49;102441.15;1632229;85;21321;-72
2022/01/18 07:21:41;;;;;;;10.82;4.83;;;;;;;0.08;80.51;102440.75;1633757;85;20979;-72
2022/01/18 07:24:17;;;;;;;11.28;4.60;;;;;;;0.10;80.52;102443.38;1632990;86;20907;-73
2022/01/18 07:26:35;;;;;;;15.25;4.33;;;;;;;0.11;80.57;102452.37;1629622;86;21391;-72
2022/01/18 07:29:01;;;;;;;16.65;4.50;;;;;;;0.14;80.54;102444.91;1655263;85;20909;-73
2022/01/18 07:31:27;;;;;;;11.97;4.15;;;;;;;0.14;80.53;102447.45;1647598;86;20939;-73
2022/01/18 07:33:53;;;;;;;11.53;4.30;;;;;;;0.16;80.61;102450.08;1656748;85;20854;-72
2022/01/18 07:36:18;;;;;;;16.25;4.05;;;;;;;0.18;80.57;102451.92;1661413;85;21813;-73
2022/01/18 07:38:44;;;;;;;12.53;4.40;;;;;;;0.20;80.63;102463.05;1648087;85;20994;-73
2022/01/18 07:41:12;;;;;;;7.67;4.03;;;;;;;0.22;80.58;102466.56;1627167;87;21750;-73
2022/01/18 07:43:40;;;;;;;15.60;4.08;;;;;;;0.25;80.66;102481.13;1652081;85;21106;-73
2022/01/18 07:46:06;;;;;;;14.68;4.53;;;;;;;0.28;80.67;102480.02;1635585;85;21077;-73
2022/01/18 07:48:33;;;;;;;15.45;4.10;;;;;;;0.29;80.55;102484.32;1643215;86;21093;-73
2022/01/18 07:50:59;;;;;;;14.30;5.45;;;;;;;0.29;80.64;102486.86;1653012;85;21610;-73
2022/01/18 07:53:26;;;;;;;13.62;4.83;;;;;;;0.30;80.60;102486.95;1640366;85;21087;-73
2022/01/18 07:55:53;;;;;;;10.00;4.05;;;;;;;0.29;80.58;102485.19;1647141;85;21536;-73
2022/01/18 07:58:19;;;;;;;14.40;4.92;;;;;;;0.32;80.69;102494.67;1643475;85;21066;-73
2022/01/18 08:00:47;;;;;;;15.60;4.10;;;;;;;0.35;80.69;102499.05;1610884;87;21091;-73
2022/01/18 08:03:13;;;;;;;12.82;4.78;;;;;;;0.35;80.69;102499.05;1610824;87;21473;-73
2022/01/18 08:05:40;;;;;;;12.58;4.15;;;;;;;0.35;80.64;102510.11;1627348;87;20910;-73
2022/01/18 08:08:07;;;;;;;19.98;5.80;;;;;;;0.35;80.65;102502.86;1657294;85;21328;-73
2022/01/18 08:10:33;;;;;;;20.12;6.08;;;;;;;0.36;80.77;102506.77;1659892;85;20945;-73
2022/01/18 08:13:02;;;;;;;;;;;;;;;0.39;80.78;102511.16;1655841;85;20985;-73
2022/01/18 08:15:43;;;;;;;17.12;5.53;;;;;;;0.40;80.79;102519.27;1653756;85;20121;-73
2022/01/18 08:18:12;;;;;;;11.40;4.20;;;;;;;0.40;80.72;102512.51;1655329;85;20888;-73
2022/01/18 08:20:38;;;;;;;12.90;4.08;;;;;;;0.41;80.80;102520.63;1658245;85;20957;-73
2022/01/18 08:23:05;;;;;;;13.13;4.30;;;;;;;0.43;80.83;102516.89;1648647;85;20945;-73
2022/01/18 08:25:31;;;;;;;12.58;3.70;;;;;;;0.44;80.84;102531.37;1639452;85;26558;-73
2022/01/18 08:27:58;;;;;;;16.60;4.67;;;;;;;0.44;80.75;102529.70;1649398;85;21507;-73
2022/01/18 08:30:24;;;;;;;14.53;4.58;;;;;;;0.42;80.79;102532.55;1610990;88;21413;-73
2022/01/18 08:32:54;;;;;;;16.90;4.92;;;;;;;0.43;80.82;102527.07;1620222;87;21035;-73
2022/01/18 08:35:18;;;;;;;14.98;4.15;;;;;;;0.44;80.83;102523.73;1616974;87;20921;-73
2022/01/18 08:37:46;;;;;;;19.10;5.33;;;;;;;0.45;80.91;102531.45;1613805;86;21575;-73
2022/01/18 08:40:12;;;;;;;7.35;3.70;;;;;;;0.47;80.91;102533.69;1601203;88;20955;-73
2022/01/18 08:42:38;;;;;;;13.28;4.17;;;;;;;0.48;80.84;102526.53;1601631;87;22664;-73
2022/01/18 08:45:07;;;;;;;16.67;5.35;;;;;;;0.48;80.83;102526.53;1607219;87;21468;-73
2022/01/18 08:47:33;;;;;;;9.00;4.30;;;;;;;0.47;80.81;102531.14;1605290;88;20959;-73
2022/01/18 08:49:59;;;;;;;14.85;4.80;;;;;;;0.48;80.94;102548.17;1603261;88;20945;-73
2022/01/18 08:52:26;;;;;;;14.10;6.28;;;;;;;0.51;80.96;102544.92;1615358;88;21407;-73
2022/01/18 08:54:52;;;;;;;;;;;;;;;0.55;80.97;102541.72;1613061;88;20968;-73
2022/01/18 08:57:18;;;;;;;21.42;4.37;;;;;;;0.56;80.94;102547.29;1602318;88;20280;-73
2022/01/18 08:59:44;;;;;;;17.17;4.60;;;;;;;0.56;80.92;102549.44;1617956;88;21432;-73
2022/01/18 09:02:12;;;;;;;11.80;4.60;;;;;;;0.58;80.98;102556.77;1626983;87;21068;-73
2022/01/18 09:04:39;;;;;;;8.93;4.03;;;;;;;0.61;81.02;102558.20;1622155;88;21417;-73
2022/01/18 09:07:08;;;;;;;12.30;5.15;;;;;;;0.63;80.96;102561.72;1605685;88;20948;-73
2022/01/18 09:09:40;;;;;;;12.05;4.45;;;;;;;0.64;80.94;102557.11;1602822;88;21425;-73
2022/01/18 09:12:11;;;;;;;15.95;5.45;;;;;;;0.63;81.00;102557.90;1600315;88;20947;-73
2022/01/18 09:14:38;;;;;;;16.40;6.08;;;;;;;0.66;80.96;102571.19;1611760;88;21047;-73
2022/01/18 09:17:04;;;;;;;14.73;4.60;;;;;;;0.69;81.03;102570.09;1616016;88;20966;-73
2022/01/18 09:19:31;;;;;;;11.50;4.00;;;;;;;0.73;81.05;102578.38;1605305;88;21031;-73
2022/01/18 09:21:59;;;;;;;15.00;4.28;;;;;;;0.75;81.01;102580.61;1603345;87;22132;-73
2022/01/18 09:24:25;;;;;;;11.68;4.12;;;;;;;0.80;81.06;102589.78;1624848;87;21144;-73
2022/01/18 09:26:53;;;;;;;14.07;5.75;;;;;;;0.83;81.02;102585.73;1617061;87;21567;-73
2022/01/18 09:29:20;;;;;;;9.55;4.60;;;;;;;0.88;81.08;102583.44;1612014;87;21543;-73
2022/01/18 09:31:48;;;;;;;12.50;4.67;;;;;;;0.95;81.13;102580.44;1606192;87;21718;-73
2022/01/18 09:34:14;;;;;;;14.10;4.60;;;;;;;1.02;81.18;102585.47;1610703;86;303648;-73
2022/01/18 09:36:40;;;;;;;10.85;4.60;;;;;;;1.09;81.17;102587.13;1608784;88;20967;-72
2022/01/18 09:39:06;;;;;;;14.25;5.53;;;;;;;1.15;81.15;102595.50;1607481;88;20996;-73
2022/01/18 09:41:38;;;;;;;13.60;5.50;;;;;;;1.18;81.09;102605.86;1604430;88;20904;-73
2022/01/18 09:44:02;;;;;;;19.65;6.30;;;;;;;1.22;81.13;102612.48;1605432;88;21875;-73
2022/01/18 09:46:28;;;;;;;15.30;5.30;;;;;;;1.25;81.12;102620.28;1603339;88;21012;-72
2022/01/18 09:48:56;;;;;;;19.42;5.58;;;;;;;1.26;81.09;102621.16;1599902;88;21002;-73
2022/01/18 09:51:24;;;;;;;16.00;5.37;;;;;;;1.28;81.09;102615.75;1600146;88;21790;-73
2022/01/18 09:53:53;;;;;;;13.50;5.08;;;;;;;1.26;81.03;102621.16;1594689;88;20997;-72
2022/01/18 09:56:19;;;;;;;16.05;5.47;;;;;;;1.23;81.07;102633.34;1602427;88;21727;-72
2022/01/18 09:58:45;;;;;;;12.18;5.90;;;;;;;1.21;81.02;102641.30;1598205;88;21154;-73
2022/01/18 10:01:12;;;;;;;18.90;5.35;;;;;;;1.10;81.07;102634.73;1599180;88;21161;-73
2022/01/18 10:03:41;;;;;;;11.38;4.55;;;;;;;1.17;81.10;102649.56;1580016;88;21146;-72
2022/01/18 10:06:10;;;;;;;8.98;4.83;;;;;;;1.15;81.10;102657.92;1601963;88;21451;-72
2022/01/18 10:08:40;;;;;;;14.45;5.40;;;;;;;1.16;81.15;102649.09;1601041;88;20920;-72
2022/01/18 10:11:18;;;;;;;17.17;5.37;;;;;;;1.18;81.18;102652.99;1600622;88;20923;-72
2022/01/18 10:13:49;;;;;;;10.32;5.75;;;;;;;1.23;81.27;102650.30;1607907;88;20955;-73
2022/01/18 10:16:23;;;;;;;13.70;5.25;;;;;;;1.27;81.24;102636.93;1601062;88;21436;-73
2022/01/18 10:19:06;;;;;;;12.20;4.95;;;;;;;1.31;81.26;102632.08;1599897;88;20900;-73
2022/01/18 10:21:45;;;;;;;14.40;5.33;;;;;;;1.33;81.22;102628.34;1592608;88;38119;-73
2022/01/18 10:24:23;;;;;;;14.85;5.47;;;;;;;1.38;81.25;102629.87;1600039;88;20944;-73
2022/01/18 10:26:57;;;;;;;13.38;6.12;;;;;;;1.41;81.25;102627.09;1605522;88;20935;-73
2022/01/18 10:29:37;;;;;;;14.50;5.72;;;;;;;1.47;81.26;102641.44;1595873;88;21471;-73
2022/01/18 10:32:15;;;;;;;17.98;6.42;;;;;;;1.52;81.28;102639.13;1595080;88;20955;-73
2022/01/18 10:35:04;;;;;;;17.98;5.42;;;;;;;1.55;81.20;102640.56;1592639;87;20991;-73
2022/01/18 10:37:18;;;;;;;14.20;4.90;;;;;;;1.57;81.18;102637.67;1594942;88;21419;-73
2022/01/18 10:39:56;;;;;;;18.65;5.90;;;;;;;1.61;81.23;102641.73;1603891;88;21011;-73
2022/01/18 10:42:32;;;;;;;15.55;4.90;;;;;;;1.64;81.23;102635.92;1600781;88;20956;-73
2022/01/18 10:45:08;;;;;;;13.98;5.72;;;;;;;1.66;81.16;102630.50;1590422;87;20963;-72
2022/01/18 10:47:38;;;;;;;10.72;6.00;;;;;;;1.66;81.20;102631.38;1602379;88;21405;-72
2022/01/18 10:50:11;;;;;;;10.82;5.70;;;;;;;1.69;81.22;102634.49;1594796;88;21452;-72
2022/01/18 10:52:38;;;;;;;16.48;5.00;;;;;;;1.73;81.21;102632.98;1603508;88;20947;-72
2022/01/18 10:55:06;;;;;;;14.28;5.20;;;;;;;1.73;81.16;102627.48;1598300;88;20915;-72
2022/01/18 10:57:38;;;;;;;20.92;6.22;;;;;;;1.74;81.19;102630.91;1603544;88;20967;-72
2022/01/18 11:00:12;;;;;;;14.43;5.92;;;;;;;1.77;81.26;102621.74;1605141;88;21094;-72
2022/01/18 11:02:42;;;;;;;14.18;5.85;;;;;;;1.81;81.30;102616.00;1595003;88;21081;-72
2022/01/18 11:05:22;;;;;;;12.58;5.15;;;;;;;1.84;81.24;102616.56;1604364;88;21453;-72
2022/01/18 11:07:50;;;;;;;13.10;5.72;;;;;;;1.87;81.21;102622.70;1607140;88;21150;-72
2022/01/18 11:10:20;;;;;;;19.65;5.50;;;;;;;1.90;81.22;102629.63;1596880;87;21656;-72
2022/01/18 11:13:04;;;;;;;16.15;5.65;;;;;;;1.88;81.15;102624.45;1596458;88;20955;-72
2022/01/18 11:15:27;;;;;;;15.03;5.12;;;;;;;1.89;81.22;102618.55;1602876;88;21029;-72
2022/01/18 11:18:00;;;;;;;16.73;5.60;;;;;;;1.91;81.23;102618.63;1604714;88;21161;-72
2022/01/18 11:20:29;;;;;;;17.27;6.28;;;;;;;1.94;81.27;102623.48;1597021;88;21527;-72
2022/01/18 11:22:56;;;;;;;16.17;5.92;;;;;;;1.95;81.19;102624.37;1603523;88;20944;-72
2022/01/18 11:25:22;;;;;;;17.42;4.78;;;;;;;1.97;81.24;102631.70;1595985;87;21439;-72
2022/01/18 11:27:52;;;;;;;14.85;5.33;;;;;;;2.00;81.27;102629.30;1597498;88;21635;-72
2022/01/18 11:30:24;;;;;;;16.25;5.62;;;;;;;2.02;81.22;102630.66;1589846;89;21106;-72
2022/01/18 11:32:54;;;;;;;16.80;5.80;;;;;;;2.05;81.25;102632.09;1587716;89;22147;-72
2022/01/18 11:35:54;;;;;;;19.02;5.47;;;;;;;2.06;81.23;102636.00;1594654;88;21004;-72
2022/01/18 11:38:50;;;;;;;15.65;6.05;;;;;;;2.08;81.22;102636.92;1589095;89;20936;-72
2022/01/18 11:41:34;;;;;;;18.42;5.75;;;;;;;2.11;81.24;102640.03;1591897;89;20984;-72
2022/01/18 11:44:17;;;;;;;21.12;5.92;;;;;;;2.13;81.26;102644.81;1577287;89;21399;-72
2022/01/18 11:46:52;;;;;;;19.42;6.60;;;;;;;2.17;81.25;102649.27;1575394;89;20983;-72
2022/01/18 11:49:25;;;;;;;18.95;6.25;;;;;;;2.18;81.20;102653.58;1594125;89;21126;-72
2022/01/18 11:52:00;;;;;;;19.30;6.78;;;;;;;2.20;81.22;102650.30;1591773;89;20956;-72
2022/01/18 11:54:43;;;;;;;20.23;7.72;;;;;;;2.23;81.24;102654.29;1598912;89;21387;-72
2022/01/18 11:57:29;;;;;;;23.32;8.58;;;;;;;2.25;81.20;102653.09;1595248;89;21056;-72
2022/01/18 12:00:14;;;;;;;21.97;8.28;;;;;;;2.26;81.18;102653.17;1588351;88;21416;-72
2022/01/18 12:02:45;;;;;;;21.68;7.80;;;;;;;2.28;81.20;102651.97;1586612;89;21465;-72
2022/01/18 12:05:19;;;;;;;16.90;6.58;;;;;;;2.28;81.19;102655.40;1592959;88;21420;-72
2022/01/18 12:07:58;;;;;;;17.12;6.83;;;;;;;2.31;81.20;102644.47;1599119;88;20927;-72
2022/01/18 12:10:42;;;;;;;20.15;6.95;;;;;;;2.31;81.13;102645.74;1594740;88;21444;-72
2022/01/18 12:13:13;;;;;;;11.73;6.58;;;;;;;2.30;81.11;102646.14;1599548;89;21041;-72
2022/01/18 12:15:47;;;;;;;15.58;6.20;;;;;;;2.32;81.11;102658.98;1597102;89;20904;-72
2022/01/18 12:18:29;;;;;;;15.55;6.12;;;;;;;2.31;81.11;102649.17;1586352;89;20924;-72
2022/01/18 12:21:06;;;;;;;27.55;7.78;;;;;;;2.31;81.07;102654.67;1594308;89;21481;-72
2022/01/18 12:23:45;;;;;;;20.52;7.25;;;;;;;2.28;81.07;102654.13;1585709;88;21443;-72
2022/01/18 12:34:45;;;;;;;15.75;6.22;;;;;;;2.30;81.17;102654.20;1609028;88;20936;-72
2022/01/18 12:37:24;;;;;;;13.58;6.20;;;;;;;2.29;81.07;102652.45;1601328;88;20944;-72
2022/01/18 12:45:05;;;;;;;20.17;6.45;;;;;;;2.25;81.06;102650.14;1612202;88;20970;-72
2022/01/18 12:47:35;;;;;;;20.43;7.42;;;;;;;2.27;81.09;102660.42;1615540;88;20907;-72
2022/01/18 12:50:04;;;;;;;30.68;8.50;;;;;;;2.26;81.08;102650.61;1610306;88;21077;-72
2022/01/18 12:53:06;;;;;;;27.17;9.10;;;;;;;2.26;81.10;102646.78;1605507;88;21456;-72
2022/01/18 12:55:58;;;;;;;28.60;9.58;;;;;;;2.28;81.13;102649.41;1611427;88;20976;-72
2022/01/18 12:58:41;;;;;;;27.90;9.55;;;;;;;2.27;81.10;102656.20;1597016;88;21049;-72
2022/01/18 13:01:17;;;;;;;26.33;8.15;;;;;;;2.28;81.12;102660.91;1597266;88;21527;-72
2022/01/18 13:03:48;;;;;;;26.25;7.45;;;;;;;2.27;81.10;102663.85;1385176;88;20013150;-72
2022/01/18 13:06:21;;;;;;;20.50;7.47;;;;;;;2.28;81.13;102663.45;1605596;88;21094;-72
2022/01/18 13:08:55;;;;;;;22.95;7.67;;;;;;;2.28;81.14;102663.05;1610281;88;21042;-72